createdAt,value
2019-06-08T00:00:32.407Z,59.97
2019-06-08T00:02:32.441Z,62.97
2019-06-08T00:03:32.417Z,60.79
2019-06-08T00:04:32.427Z,64.30
2019-06-08T00:05:32.417Z,61.36
2019-06-08T00:07:32.415Z,61.12
2019-06-08T00:08:32.488Z,61.78
2019-06-08T00:09:32.446Z,62.92
2019-06-08T00:10:32.440Z,63.38
2019-06-08T00:12:32.409Z,60.84
2019-06-08T00:13:32.490Z,61.45
2019-06-08T00:14:32.466Z,60.79
2019-06-08T00:15:32.435Z,61.03
2019-06-08T00:17:38.472Z,62.46
2019-06-08T00:18:32.478Z,60.75
2019-06-08T00:19:32.473Z,60.10
2019-06-08T00:20:32.457Z,60.31
2019-06-08T00:23:32.433Z,61.26
2019-06-08T00:24:32.432Z,60.73
2019-06-08T00:25:32.472Z,60.38
2019-06-08T00:26:32.494Z,60.20
2019-06-08T00:28:32.443Z,63.52
2019-06-08T00:29:32.437Z,63.11
2019-06-08T00:30:32.907Z,60.59
2019-06-08T00:31:32.445Z,60.34
2019-06-08T00:33:32.516Z,61.61
2019-06-08T00:34:32.463Z,59.64
2019-06-08T00:35:32.509Z,62.08
2019-06-08T00:36:32.443Z,61.19
2019-06-08T00:38:32.446Z,63.89
2019-06-08T00:39:32.460Z,63.35
2019-06-08T00:40:32.462Z,63.51
2019-06-08T00:41:32.466Z,60.92
2019-06-08T00:43:32.480Z,60.51
2019-06-08T00:44:32.465Z,64.78
2019-06-08T00:45:32.451Z,62.25
2019-06-08T00:46:32.461Z,64.05
2019-06-08T00:48:32.457Z,62.62
2019-06-08T00:49:32.513Z,65.74
2019-06-08T00:50:32.512Z,63.95
2019-06-08T00:51:32.477Z,62.36
2019-06-08T00:54:32.485Z,66.05
2019-06-08T00:55:32.479Z,62.63
2019-06-08T00:56:32.556Z,63.44
2019-06-08T00:57:32.478Z,63.76
2019-06-08T01:00:32.488Z,62.19
2019-06-08T01:01:32.546Z,63.55
2019-06-08T01:02:32.517Z,63.58
2019-06-08T01:03:32.517Z,66.65
2019-06-08T01:04:32.531Z,62.48
2019-06-08T01:06:32.514Z,61.43
2019-06-08T01:07:32.484Z,62.40
2019-06-08T01:08:32.490Z,65.56
2019-06-08T01:09:32.493Z,66.78
2019-06-08T01:10:32.486Z,66.74
2019-06-08T01:12:32.502Z,64.62
2019-06-08T01:13:32.536Z,65.50
2019-06-08T01:14:32.529Z,64.42
2019-06-08T01:15:34.405Z,69.02
2019-06-08T01:17:32.507Z,69.28
2019-06-08T01:18:32.573Z,69.11
2019-06-08T01:19:32.526Z,66.37
2019-06-08T01:20:32.566Z,66.19
2019-06-08T01:21:32.493Z,67.52
2019-06-08T01:23:32.505Z,69.71
2019-06-08T01:24:32.499Z,68.54
2019-06-08T01:25:32.513Z,68.63
2019-06-08T01:26:32.499Z,71.02
2019-06-08T01:27:32.548Z,66.20
2019-06-08T01:29:32.543Z,66.33
2019-06-08T01:30:32.517Z,68.20
2019-06-08T01:31:32.588Z,67.24
2019-06-08T01:32:32.596Z,68.77
2019-06-08T01:33:32.555Z,67.54
2019-06-08T01:35:32.531Z,68.05
2019-06-08T01:36:32.535Z,68.85
2019-06-08T01:37:32.523Z,68.86
2019-06-08T01:38:32.523Z,69.90
2019-06-08T01:39:32.592Z,69.64
2019-06-08T01:41:32.567Z,67.47
2019-06-08T01:42:32.552Z,70.41
2019-06-08T01:43:32.589Z,69.73
2019-06-08T01:44:32.547Z,67.92
2019-06-08T01:45:33.210Z,69.21
2019-06-08T01:47:32.585Z,67.96
2019-06-08T01:48:32.561Z,71.31
2019-06-08T01:49:32.632Z,69.56
2019-06-08T01:50:32.818Z,69.29
2019-06-08T01:51:32.819Z,69.91
2019-06-08T01:53:33.002Z,68.51
2019-06-08T01:54:33.342Z,72.24
2019-06-08T01:55:33.273Z,68.59
2019-06-08T01:56:33.357Z,68.18
2019-06-08T01:57:33.828Z,68.03
2019-06-08T01:59:34.547Z,69.49
2019-06-08T02:00:37.686Z,70.58
2019-06-08T02:01:34.015Z,70.31
2019-06-08T02:02:34.093Z,69.83
2019-06-08T02:03:32.788Z,67.89
2019-06-08T02:05:32.619Z,66.85
2019-06-08T02:06:32.563Z,69.09
2019-06-08T02:07:32.624Z,68.45
2019-06-08T02:08:32.672Z,72.31
2019-06-08T02:09:32.790Z,68.36
2019-06-08T02:11:33.025Z,68.50
2019-06-08T02:12:33.121Z,67.83
2019-06-08T02:13:33.094Z,70.05
2019-06-08T02:14:33.260Z,69.31
2019-06-08T02:15:33.824Z,68.77
2019-06-08T02:17:33.465Z,68.87
2019-06-08T02:18:41.921Z,69.83
2019-06-08T02:19:32.743Z,71.34
2019-06-08T02:20:33.007Z,69.25
2019-06-08T02:21:32.805Z,71.11
2019-06-08T02:23:33.120Z,70.57
2019-06-08T02:24:33.377Z,72.62
2019-06-08T02:25:33.529Z,72.74
2019-06-08T02:26:35.206Z,72.33
2019-06-08T02:27:33.564Z,73.68
2019-06-08T02:29:33.698Z,73.81
2019-06-08T02:30:34.188Z,74.68
2019-06-08T02:31:33.228Z,72.00
2019-06-08T02:32:33.508Z,73.37
2019-06-08T02:33:34.628Z,73.07
2019-06-08T02:35:32.847Z,75.17
2019-06-08T02:36:33.779Z,74.09
2019-06-08T02:37:33.189Z,75.08
2019-06-08T02:38:34.271Z,76.01
2019-06-08T02:41:33.177Z,75.33
2019-06-08T02:42:33.086Z,73.49
2019-06-08T02:43:33.360Z,74.97
2019-06-08T02:44:34.317Z,73.96
2019-06-08T02:45:34.256Z,76.17
2019-06-08T02:47:34.028Z,74.58
2019-06-08T02:48:33.643Z,71.86
2019-06-08T02:49:33.189Z,73.59
2019-06-08T02:50:33.062Z,74.57
2019-06-08T02:52:34.351Z,75.75
2019-06-08T02:53:34.142Z,75.66
2019-06-08T02:54:34.706Z,75.55
2019-06-08T02:55:33.085Z,74.97
2019-06-08T02:57:33.216Z,74.13
2019-06-08T02:58:33.568Z,70.78
2019-06-08T02:59:32.908Z,74.23
2019-06-08T03:00:33.713Z,74.00
2019-06-08T03:01:33.708Z,73.32
2019-06-08T03:03:33.786Z,71.70
2019-06-08T03:04:34.478Z,76.07
2019-06-08T03:05:34.042Z,76.40
2019-06-08T03:06:34.541Z,76.57
2019-06-08T03:08:34.282Z,73.89
2019-06-08T03:09:34.628Z,73.51
2019-06-08T03:10:32.931Z,74.45
2019-06-08T03:11:32.747Z,72.20
2019-06-08T03:13:33.566Z,71.58
2019-06-08T03:14:33.365Z,72.22
2019-06-08T03:15:35.061Z,74.15
2019-06-08T03:16:33.353Z,73.17
2019-06-08T03:18:33.687Z,75.49
2019-06-08T03:19:33.310Z,73.91
2019-06-08T03:20:33.482Z,72.93
2019-06-08T03:21:33.919Z,71.49
2019-06-08T03:23:34.198Z,73.17
2019-06-08T03:24:34.345Z,74.88
2019-06-08T03:25:35.392Z,73.15
2019-06-08T03:26:34.111Z,72.39
2019-06-08T03:28:34.585Z,72.51
2019-06-08T03:29:34.753Z,71.59
2019-06-08T03:30:35.319Z,73.78
2019-06-08T03:31:36.190Z,74.46
2019-06-08T03:33:35.835Z,73.70
2019-06-08T03:34:35.637Z,74.18
2019-06-08T03:35:36.291Z,71.64
2019-06-08T03:36:35.931Z,75.33
2019-06-08T03:38:33.765Z,75.49
2019-06-08T03:39:32.743Z,75.65
2019-06-08T03:40:33.913Z,73.47
2019-06-08T03:41:34.368Z,75.82
2019-06-08T03:43:32.678Z,74.97
2019-06-08T03:44:34.206Z,73.60
2019-06-08T03:45:34.191Z,74.01
2019-06-08T03:46:34.355Z,74.82
2019-06-08T03:48:32.763Z,73.17
2019-06-08T03:49:42.786Z,73.21
2019-06-08T03:50:32.727Z,73.67
2019-06-08T03:51:36.035Z,76.04
2019-06-08T03:53:32.787Z,77.13
2019-06-08T03:54:32.743Z,75.95
2019-06-08T03:55:32.702Z,73.37
2019-06-08T03:56:32.725Z,73.51
2019-06-08T03:58:34.119Z,73.34
2019-06-08T03:59:32.714Z,75.16
2019-06-08T04:00:32.720Z,75.16
2019-06-08T04:01:32.707Z,73.61
2019-06-08T04:03:32.748Z,76.44
2019-06-08T04:04:32.761Z,74.05
2019-06-08T04:05:32.720Z,73.52
2019-06-08T04:06:32.713Z,74.43
2019-06-08T04:08:32.727Z,75.96
2019-06-08T04:09:32.734Z,74.81
2019-06-08T04:10:32.813Z,75.01
2019-06-08T04:11:32.737Z,73.94
2019-06-08T04:13:32.786Z,70.35
2019-06-08T04:14:32.743Z,73.27
2019-06-08T04:15:32.734Z,73.79
2019-06-08T04:16:32.744Z,71.74
2019-06-08T04:18:32.833Z,72.43
2019-06-08T04:19:32.765Z,74.51
2019-06-08T04:20:32.801Z,75.56
2019-06-08T04:21:32.742Z,73.51
2019-06-08T04:23:32.748Z,72.47
2019-06-08T04:24:32.868Z,71.13
2019-06-08T04:25:32.770Z,72.86
2019-06-08T04:26:32.747Z,74.28
2019-06-08T04:28:32.750Z,73.18
2019-06-08T04:29:32.816Z,74.15
2019-06-08T04:30:32.754Z,73.44
2019-06-08T04:31:32.818Z,73.07
2019-06-08T04:34:32.754Z,73.55
2019-06-08T04:35:32.766Z,74.55
2019-06-08T04:36:32.752Z,74.75
2019-06-08T04:37:32.802Z,74.09
2019-06-08T04:39:32.766Z,75.12
2019-06-08T04:40:32.763Z,76.69
2019-06-08T04:41:32.831Z,77.06
2019-06-08T04:42:32.779Z,73.01
2019-06-08T04:44:32.767Z,73.72
2019-06-08T04:45:32.801Z,74.15
2019-06-08T04:46:32.815Z,73.45
2019-06-08T04:47:32.775Z,75.81
2019-06-08T04:49:32.821Z,72.20
2019-06-08T04:50:32.786Z,70.91
2019-06-08T04:51:32.770Z,72.33
2019-06-08T04:52:32.807Z,73.51
2019-06-08T04:54:32.773Z,73.70
2019-06-08T04:55:32.788Z,74.06
2019-06-08T04:56:32.804Z,71.99
2019-06-08T04:57:32.838Z,72.03
2019-06-08T04:59:32.795Z,72.88
2019-06-08T05:00:32.804Z,75.63
2019-06-08T05:01:32.802Z,77.46
2019-06-08T05:02:32.794Z,76.86
2019-06-08T05:04:32.792Z,75.79
2019-06-08T05:05:32.807Z,75.95
2019-06-08T05:06:32.859Z,73.92
2019-06-08T05:07:32.799Z,75.36
2019-06-08T05:09:32.813Z,76.51
2019-06-08T05:10:32.849Z,73.01
2019-06-08T05:11:36.181Z,76.51
2019-06-08T05:12:32.850Z,76.42
2019-06-08T05:14:32.804Z,76.87
2019-06-08T05:15:32.811Z,72.55
2019-06-08T05:16:32.854Z,72.92
2019-06-08T05:17:32.832Z,75.70
2019-06-08T05:19:33.196Z,73.64
2019-06-08T05:20:39.053Z,73.08
2019-06-08T05:21:32.821Z,74.34
2019-06-08T05:22:32.864Z,74.49
2019-06-08T05:25:32.840Z,77.71
2019-06-08T05:26:32.815Z,75.46
2019-06-08T05:27:32.883Z,75.35
2019-06-08T05:28:32.826Z,73.32
2019-06-08T05:30:32.833Z,76.61
2019-06-08T05:31:32.829Z,75.90
2019-06-08T05:32:32.844Z,75.10
2019-06-08T05:33:32.858Z,75.46
2019-06-08T05:35:32.834Z,75.48
2019-06-08T05:36:32.875Z,76.19
2019-06-08T05:37:32.867Z,76.95
2019-06-08T05:38:32.852Z,74.71
2019-06-08T05:41:32.838Z,72.69
2019-06-08T05:42:32.841Z,70.99
2019-06-08T05:43:32.842Z,73.48
2019-06-08T05:44:32.843Z,75.00
2019-06-08T05:45:32.861Z,75.19
2019-06-08T05:47:32.862Z,71.76
2019-06-08T05:48:32.855Z,71.76
2019-06-08T05:49:32.863Z,74.78
2019-06-08T05:50:32.859Z,72.42
2019-06-08T05:53:32.913Z,74.18
2019-06-08T05:54:32.872Z,72.49
2019-06-08T05:55:32.879Z,75.91
2019-06-08T05:56:32.861Z,71.16
2019-06-08T05:58:32.866Z,75.19
2019-06-08T05:59:32.860Z,72.13
2019-06-08T06:00:32.873Z,73.86
2019-06-08T06:01:32.878Z,71.87
2019-06-08T06:03:32.914Z,72.64
2019-06-08T06:04:32.872Z,73.31
2019-06-08T06:05:32.934Z,74.95
2019-06-08T06:06:32.873Z,71.92
2019-06-08T06:07:32.884Z,72.15
2019-06-08T06:09:32.888Z,74.37
2019-06-08T06:10:32.880Z,75.27
2019-06-08T06:11:32.897Z,74.03
2019-06-08T06:12:32.901Z,72.90
2019-06-08T06:14:32.909Z,70.40
2019-06-08T06:15:32.939Z,73.94
2019-06-08T06:16:32.956Z,72.61
2019-06-08T06:17:32.891Z,73.14
2019-06-08T06:20:32.915Z,69.51
2019-06-08T06:21:32.889Z,70.45
2019-06-08T06:22:32.902Z,72.02
2019-06-08T06:23:32.937Z,70.82
2019-06-08T06:26:32.921Z,72.83
2019-06-08T06:27:32.896Z,71.05
2019-06-08T06:28:32.919Z,71.07
2019-06-08T06:29:32.931Z,71.07
2019-06-08T06:30:32.960Z,71.43
2019-06-08T06:32:32.973Z,74.42
2019-06-08T06:33:32.914Z,74.78
2019-06-08T06:34:32.910Z,75.03
2019-06-08T06:35:32.959Z,72.65
2019-06-08T06:38:32.912Z,73.40
2019-06-08T06:39:32.915Z,72.65
2019-06-08T06:40:32.925Z,72.95
2019-06-08T06:41:32.922Z,70.58
2019-06-08T06:43:32.922Z,73.15
2019-06-08T06:44:32.926Z,72.84
2019-06-08T06:45:33.001Z,75.22
2019-06-08T06:46:32.951Z,74.34
2019-06-08T06:48:33.001Z,71.97
2019-06-08T06:49:32.913Z,71.08
2019-06-08T06:50:32.924Z,69.70
2019-06-08T06:51:34.015Z,69.37
2019-06-08T06:54:32.986Z,69.67
2019-06-08T06:55:32.931Z,69.50
2019-06-08T06:56:32.949Z,68.68
2019-06-08T06:57:36.238Z,72.56
2019-06-08T06:59:32.959Z,74.23
2019-06-08T07:00:33.107Z,75.57
2019-06-08T07:01:32.941Z,75.67
2019-06-08T07:02:33.053Z,71.27
2019-06-08T07:04:33.011Z,71.27
2019-06-08T07:05:32.945Z,73.46
2019-06-08T07:06:32.996Z,71.97
2019-06-08T07:07:32.961Z,71.78
2019-06-08T07:09:32.947Z,70.87
2019-06-08T07:10:32.952Z,71.86
2019-06-08T07:11:32.951Z,72.96
2019-06-08T07:12:32.959Z,69.33
2019-06-08T07:14:32.957Z,71.09
2019-06-08T07:15:41.108Z,74.13
2019-06-08T07:16:32.970Z,72.85
2019-06-08T07:17:32.960Z,74.28
2019-06-08T07:20:33.060Z,71.17
2019-06-08T07:21:41.191Z,69.54
2019-06-08T07:22:32.962Z,71.05
2019-06-08T07:23:33.004Z,70.98
2019-06-08T07:26:32.973Z,69.75
2019-06-08T07:27:33.019Z,70.66
2019-06-08T07:28:32.994Z,69.25
2019-06-08T07:29:32.995Z,72.86
2019-06-08T07:31:33.084Z,70.70
2019-06-08T07:32:33.013Z,69.20
2019-06-08T07:33:32.986Z,71.51
2019-06-08T07:34:33.043Z,68.54
2019-06-08T07:37:33.065Z,70.98
2019-06-08T07:38:33.009Z,70.92
2019-06-08T07:39:33.028Z,71.92
2019-06-08T07:40:33.001Z,69.77
2019-06-08T07:42:33.005Z,71.82
2019-06-08T07:43:32.995Z,70.05
2019-06-08T07:44:32.998Z,70.20
2019-06-08T07:45:33.036Z,71.35
2019-06-08T07:47:33.029Z,72.00
2019-06-08T07:48:33.014Z,71.67
2019-06-08T07:49:33.005Z,69.17
2019-06-08T07:50:33.006Z,70.15
2019-06-08T07:52:33.050Z,71.76
2019-06-08T07:53:33.029Z,67.54
2019-06-08T07:54:33.047Z,67.59
2019-06-08T07:55:33.018Z,69.91
2019-06-08T07:58:33.042Z,66.90
2019-06-08T07:59:33.033Z,67.81
2019-06-08T08:00:33.012Z,67.55
2019-06-08T08:01:36.486Z,71.54
2019-06-08T08:04:33.119Z,69.22
2019-06-08T08:05:33.020Z,69.94
2019-06-08T08:06:33.066Z,66.31
2019-06-08T08:07:33.034Z,66.20
2019-06-08T08:10:33.024Z,68.70
2019-06-08T08:11:33.078Z,69.00
2019-06-08T08:12:33.035Z,66.83
2019-06-08T08:13:33.081Z,72.16
2019-06-08T08:15:33.099Z,68.32
2019-06-08T08:16:33.083Z,69.18
2019-06-08T08:17:34.384Z,67.16
2019-06-08T08:18:33.059Z,68.33
2019-06-08T08:20:33.096Z,71.80
2019-06-08T08:21:33.048Z,67.46
2019-06-08T08:22:33.050Z,68.71
2019-06-08T08:23:33.055Z,65.61
2019-06-08T08:26:34.410Z,68.10
2019-06-08T08:27:33.041Z,67.27
2019-06-08T08:28:33.061Z,64.41
2019-06-08T08:29:33.064Z,65.03
2019-06-08T08:31:33.086Z,70.66
2019-06-08T08:32:33.080Z,65.37
2019-06-08T08:33:33.111Z,67.71
2019-06-08T08:34:33.118Z,65.09
2019-06-08T08:36:33.493Z,68.37
2019-06-08T08:37:33.066Z,66.04
2019-06-08T08:38:33.134Z,67.55
2019-06-08T08:39:33.064Z,66.83
2019-06-08T08:42:33.067Z,66.29
2019-06-08T08:43:33.102Z,64.32
2019-06-08T08:44:33.192Z,65.22
2019-06-08T08:45:33.076Z,66.63
2019-06-08T08:47:33.080Z,64.76
2019-06-08T08:48:33.087Z,66.84
2019-06-08T08:49:33.145Z,63.42
2019-06-08T08:50:33.106Z,63.07
2019-06-08T08:52:37.028Z,60.98
2019-06-08T08:53:33.146Z,66.00
2019-06-08T08:54:33.084Z,65.74
2019-06-08T08:55:33.088Z,63.29
2019-06-08T08:58:33.163Z,64.01
2019-06-08T08:59:33.107Z,68.71
2019-06-08T09:00:33.108Z,64.83
2019-06-08T09:01:33.092Z,64.74
2019-06-08T09:04:33.246Z,63.10
2019-06-08T09:05:33.275Z,67.20
2019-06-08T09:06:33.122Z,67.33
2019-06-08T09:07:33.103Z,65.36
2019-06-08T09:09:33.132Z,66.07
2019-06-08T09:10:33.116Z,64.79
2019-06-08T09:11:33.115Z,65.74
2019-06-08T09:12:33.126Z,66.67
2019-06-08T09:14:33.232Z,62.13
2019-06-08T09:15:33.167Z,57.33
2019-06-08T09:16:33.130Z,65.39
2019-06-08T09:17:33.120Z,63.04
2019-06-08T09:20:33.163Z,64.45
2019-06-08T09:21:33.133Z,66.87
2019-06-08T09:22:33.140Z,63.82
2019-06-08T09:23:33.457Z,62.58
2019-06-08T09:25:33.141Z,66.98
2019-06-08T09:26:33.134Z,64.77
2019-06-08T09:27:33.155Z,63.71
2019-06-08T09:28:33.159Z,59.16
2019-06-08T09:31:33.140Z,60.76
2019-06-08T09:32:33.180Z,61.76
2019-06-08T09:33:33.161Z,58.98
2019-06-08T09:34:33.220Z,62.37
2019-06-08T09:36:33.166Z,61.37
2019-06-08T09:37:33.173Z,63.64
2019-06-08T09:38:33.159Z,60.81
2019-06-08T09:39:33.261Z,58.95
2019-06-08T09:41:33.152Z,61.37
2019-06-08T09:42:33.192Z,61.92
2019-06-08T09:43:33.194Z,64.42
2019-06-08T09:44:33.167Z,63.16
2019-06-08T09:46:33.181Z,57.05
2019-06-08T09:47:33.157Z,57.43
2019-06-08T09:48:33.479Z,59.92
2019-06-08T09:49:33.175Z,58.17
2019-06-08T09:51:33.305Z,56.85
2019-06-08T09:52:33.349Z,57.86
2019-06-08T09:53:37.484Z,57.35
2019-06-08T09:54:33.161Z,56.91
2019-06-08T09:56:33.237Z,55.28
2019-06-08T09:57:33.228Z,58.91
2019-06-08T09:58:33.203Z,58.38
2019-06-08T09:59:33.231Z,59.64
2019-06-08T10:01:33.190Z,61.28
2019-06-08T10:02:33.190Z,57.94
2019-06-08T10:03:33.179Z,57.73
2019-06-08T10:04:33.201Z,56.97
2019-06-08T10:06:33.245Z,61.40
2019-06-08T10:07:33.194Z,55.81
2019-06-08T10:08:33.214Z,58.30
2019-06-08T10:09:33.239Z,57.16
2019-06-08T10:11:33.184Z,60.75
2019-06-08T10:12:33.207Z,58.60
2019-06-08T10:13:33.213Z,61.71
2019-06-08T10:14:33.234Z,59.36
2019-06-08T10:17:33.222Z,56.17
2019-06-08T10:18:33.204Z,58.14
2019-06-08T10:19:33.229Z,56.56
2019-06-08T10:20:33.214Z,58.33
2019-06-08T10:22:33.206Z,57.59
2019-06-08T10:23:34.529Z,60.48
2019-06-08T10:24:33.242Z,56.21
2019-06-08T10:25:33.257Z,63.48
2019-06-08T10:27:33.270Z,63.64
2019-06-08T10:28:33.258Z,61.96
2019-06-08T10:29:33.285Z,61.88
2019-06-08T10:30:33.229Z,61.79
2019-06-08T10:33:33.217Z,55.40
2019-06-08T10:34:33.213Z,55.31
2019-06-08T10:35:33.241Z,48.04
2019-06-08T10:37:33.219Z,50.20
2019-06-08T10:38:33.288Z,54.42
2019-06-08T10:39:33.462Z,54.44
2019-06-08T10:40:33.249Z,61.62
2019-06-08T10:42:33.267Z,56.59
2019-06-08T10:43:33.265Z,55.74
2019-06-08T10:44:33.229Z,52.87
2019-06-08T10:45:33.238Z,59.25
2019-06-08T10:47:33.246Z,52.48
2019-06-08T10:48:33.269Z,54.82
2019-06-08T10:49:33.270Z,49.60
2019-06-08T10:50:33.257Z,49.96
2019-06-08T10:52:33.244Z,48.92
2019-06-08T10:53:46.525Z,52.32
2019-06-08T10:54:33.255Z,50.81
2019-06-08T10:55:33.246Z,50.78
2019-06-08T10:57:33.405Z,52.08
2019-06-08T10:58:33.260Z,47.14
2019-06-08T10:59:36.518Z,58.55
2019-06-08T11:00:33.272Z,49.56
2019-06-08T11:01:33.341Z,45.35
2019-06-08T11:03:33.259Z,51.20
2019-06-08T11:04:33.271Z,44.61
2019-06-08T11:05:33.487Z,49.49
2019-06-08T11:06:33.520Z,47.84
2019-06-08T11:08:33.274Z,55.81
2019-06-08T11:09:33.302Z,41.80
2019-06-08T11:10:33.320Z,41.79
2019-06-08T11:11:33.330Z,44.40
2019-06-08T11:13:33.307Z,46.98
2019-06-08T11:14:33.271Z,45.08
2019-06-08T11:15:33.282Z,46.86
2019-06-08T11:16:33.276Z,48.60
2019-06-08T11:19:33.293Z,44.06
2019-06-08T11:20:33.292Z,41.60
2019-06-08T11:21:33.284Z,43.86
2019-06-08T11:22:33.291Z,45.81
2019-06-08T11:24:33.318Z,42.20
2019-06-08T11:25:33.321Z,42.07
2019-06-08T11:26:33.337Z,44.40
2019-06-08T11:27:33.300Z,45.83
2019-06-08T11:29:33.304Z,44.23
2019-06-08T11:30:33.295Z,43.15
2019-06-08T11:31:33.353Z,45.92
2019-06-08T11:32:33.288Z,45.33
2019-06-08T11:34:33.322Z,40.94
2019-06-08T11:35:33.317Z,44.95
2019-06-08T11:36:33.361Z,47.76
2019-06-08T11:37:33.306Z,45.68
2019-06-08T11:39:33.356Z,46.63
2019-06-08T11:40:33.368Z,43.23
2019-06-08T11:41:33.363Z,44.42
2019-06-08T11:42:33.342Z,42.95
2019-06-08T11:44:33.422Z,49.59
2019-06-08T11:45:33.319Z,49.26
2019-06-08T11:46:33.323Z,44.65
2019-06-08T11:47:33.343Z,51.26
2019-06-08T11:50:33.374Z,48.47
2019-06-08T11:51:33.358Z,46.06
2019-06-08T11:52:33.347Z,47.08
2019-06-08T11:54:37.021Z,45.32
2019-06-08T11:55:33.340Z,47.36
2019-06-08T11:56:33.386Z,47.35
2019-06-08T11:57:33.379Z,46.58
2019-06-08T11:59:33.359Z,53.96
2019-06-08T12:00:33.339Z,47.38
2019-06-08T12:01:33.348Z,44.71
2019-06-08T12:02:33.348Z,42.72
2019-06-08T12:04:33.412Z,45.61
2019-06-08T12:05:33.347Z,44.97
2019-06-08T12:06:33.355Z,43.85
2019-06-08T12:07:33.343Z,42.04
2019-06-08T12:09:33.356Z,49.51
2019-06-08T12:10:33.372Z,47.48
2019-06-08T12:11:33.366Z,43.88
2019-06-08T12:12:33.446Z,43.90
2019-06-08T12:14:33.740Z,44.46
2019-06-08T12:15:33.423Z,45.40
2019-06-08T12:16:33.401Z,48.35
2019-06-08T12:17:33.376Z,47.29
2019-06-08T12:20:33.433Z,50.69
2019-06-08T12:21:33.458Z,50.62
2019-06-08T12:22:33.418Z,46.93
2019-06-08T12:23:33.409Z,37.73
2019-06-08T12:25:33.388Z,43.99
2019-06-08T12:26:33.388Z,40.63
2019-06-08T12:27:36.349Z,50.10
2019-06-08T12:28:33.386Z,45.52
2019-06-08T12:30:34.123Z,44.49
2019-06-08T12:31:33.416Z,45.05
2019-06-08T12:32:33.505Z,46.35
2019-06-08T12:33:33.393Z,42.23
2019-06-08T12:34:33.407Z,53.11
2019-06-08T12:36:33.410Z,41.13
2019-06-08T12:37:33.387Z,48.39
2019-06-08T12:38:34.669Z,44.57
2019-06-08T12:39:33.392Z,40.19
2019-06-08T12:40:33.642Z,47.71
2019-06-08T12:42:33.429Z,43.23
2019-06-08T12:43:33.408Z,42.16
2019-06-08T12:44:33.456Z,43.43
2019-06-08T12:45:33.422Z,40.63
2019-06-08T12:47:33.424Z,46.93
2019-06-08T12:48:33.440Z,48.03
2019-06-08T12:49:33.420Z,39.08
2019-06-08T12:50:33.417Z,40.90
2019-06-08T12:52:33.452Z,43.34
2019-06-08T12:53:33.443Z,44.71
2019-06-08T12:54:33.434Z,42.03
2019-06-08T12:55:33.435Z,39.51
2019-06-08T12:57:33.572Z,46.84
2019-06-08T12:58:33.435Z,39.28
2019-06-08T12:59:33.451Z,40.78
2019-06-08T13:00:33.509Z,46.68
2019-06-08T13:02:33.486Z,39.50
2019-06-08T13:03:33.440Z,39.96
2019-06-08T13:04:33.452Z,38.83
2019-06-08T13:05:33.457Z,46.96
2019-06-08T13:07:33.435Z,41.10
2019-06-08T13:08:33.476Z,49.33
2019-06-08T13:09:33.482Z,41.47
2019-06-08T13:10:33.478Z,40.25
2019-06-08T13:12:33.463Z,36.80
2019-06-08T13:13:33.471Z,37.30
2019-06-08T13:14:33.470Z,42.98
2019-06-08T13:15:33.499Z,40.74
2019-06-08T13:17:33.482Z,36.73
2019-06-08T13:18:33.522Z,38.96
2019-06-08T13:19:33.476Z,38.10
2019-06-08T13:20:33.469Z,34.25
2019-06-08T13:22:33.470Z,43.51
2019-06-08T13:23:33.480Z,40.73
2019-06-08T13:24:33.654Z,42.93
2019-06-08T13:25:40.091Z,39.84
2019-06-08T13:27:33.538Z,37.11
2019-06-08T13:28:33.547Z,45.09
2019-06-08T13:29:33.540Z,40.52
2019-06-08T13:30:33.538Z,41.65
2019-06-08T13:32:33.486Z,43.36
2019-06-08T13:33:33.507Z,45.55
2019-06-08T13:34:33.499Z,38.91
2019-06-08T13:35:33.564Z,37.73
2019-06-08T13:37:33.497Z,36.58
2019-06-08T13:38:33.563Z,35.67
2019-06-08T13:39:33.519Z,40.34
2019-06-08T13:40:33.571Z,37.36
2019-06-08T13:42:33.554Z,47.55
2019-06-08T13:43:33.553Z,39.29
2019-06-08T13:44:33.581Z,37.87
2019-06-08T13:45:33.499Z,39.77
2019-06-08T13:47:33.580Z,41.45
2019-06-08T13:48:33.557Z,38.88
2019-06-08T13:49:33.516Z,41.86
2019-06-08T13:50:33.565Z,40.47
2019-06-08T13:53:33.556Z,38.05
2019-06-08T13:54:33.530Z,39.90
2019-06-08T13:55:48.574Z,41.56
2019-06-08T13:56:33.528Z,40.85
2019-06-08T13:58:33.810Z,39.10
2019-06-08T13:59:33.574Z,42.27
2019-06-08T14:00:33.551Z,38.04
2019-06-08T14:01:33.571Z,41.14
2019-06-08T14:03:33.529Z,40.45
2019-06-08T14:04:33.549Z,35.92
2019-06-08T14:05:33.558Z,38.57
2019-06-08T14:06:33.579Z,43.04
2019-06-08T14:08:33.545Z,45.48
2019-06-08T14:09:33.616Z,42.67
2019-06-08T14:10:33.611Z,40.08
2019-06-08T14:11:33.562Z,40.63
2019-06-08T14:14:33.857Z,40.65
2019-06-08T14:15:33.600Z,42.79
2019-06-08T14:16:33.564Z,39.85
2019-06-08T14:17:33.571Z,42.72
2019-06-08T14:19:33.588Z,42.20
2019-06-08T14:20:34.479Z,41.91
2019-06-08T14:21:40.920Z,37.97
2019-06-08T14:22:33.598Z,41.78
2019-06-08T14:24:34.727Z,42.45
2019-06-08T14:25:46.975Z,40.58
2019-06-08T14:26:33.569Z,40.38
2019-06-08T14:27:33.605Z,37.98
2019-06-08T14:29:33.587Z,36.92
2019-06-08T14:30:33.658Z,38.76
2019-06-08T14:31:33.634Z,41.31
2019-06-08T14:32:33.590Z,40.85
2019-06-08T14:34:33.616Z,40.09
2019-06-08T14:35:33.592Z,40.32
2019-06-08T14:36:33.591Z,41.45
2019-06-08T14:37:33.654Z,40.39
2019-06-08T14:39:33.610Z,38.74
2019-06-08T14:40:33.599Z,42.94
2019-06-08T14:41:33.608Z,37.48
2019-06-08T14:42:33.606Z,38.37
2019-06-08T14:45:33.645Z,37.09
2019-06-08T14:46:33.604Z,37.25
2019-06-08T14:47:33.608Z,36.26
2019-06-08T14:48:33.971Z,36.03
2019-06-08T14:50:33.642Z,39.83
2019-06-08T14:51:33.602Z,37.76
2019-06-08T14:52:33.627Z,40.74
2019-06-08T14:53:33.617Z,39.86
2019-06-08T14:55:34.319Z,42.96
2019-06-08T14:56:33.620Z,42.60
2019-06-08T14:57:33.610Z,41.39
2019-06-08T14:58:35.025Z,44.07
2019-06-08T15:00:33.662Z,39.19
2019-06-08T15:01:33.610Z,40.50
2019-06-08T15:02:33.683Z,40.12
2019-06-08T15:03:33.629Z,42.46
2019-06-08T15:15:47.979Z,39.82
2019-06-08T15:16:49.367Z,39.21
2019-06-08T15:17:47.963Z,39.48
2019-06-08T15:18:47.970Z,39.75
2019-06-08T15:19:47.975Z,42.31
2019-06-08T15:20:48.397Z,43.61
2019-06-08T15:21:48.527Z,36.51
2019-06-08T15:22:47.982Z,40.64
2019-06-08T15:23:47.993Z,43.95
2019-06-08T15:24:47.988Z,38.10
2019-06-08T15:25:48.067Z,43.81
2019-06-08T15:26:48.767Z,39.32
2019-06-08T15:27:47.973Z,41.70
2019-06-08T15:28:48.550Z,40.12
2019-06-08T15:29:48.015Z,40.71
2019-06-08T15:30:48.006Z,39.03
2019-06-08T15:31:48.437Z,41.70
2019-06-08T15:32:48.171Z,39.48
2019-06-08T15:33:48.332Z,44.12
2019-06-08T15:34:50.941Z,40.83
2019-06-08T15:35:48.107Z,40.73
2019-06-08T15:36:48.037Z,41.73
2019-06-08T15:37:48.139Z,43.06
2019-06-08T15:38:48.160Z,38.71
2019-06-08T15:39:48.582Z,40.65
2019-06-08T15:40:47.984Z,41.81
2019-06-08T15:41:48.801Z,38.12
2019-06-08T15:42:48.332Z,41.90
2019-06-08T15:43:48.219Z,41.02
2019-06-08T15:44:48.107Z,41.36
2019-06-08T15:45:48.842Z,41.62
2019-06-08T15:46:48.038Z,42.93
2019-06-08T15:47:48.615Z,47.32
2019-06-08T15:48:48.650Z,45.05
2019-06-08T15:49:50.367Z,44.85
2019-06-08T15:50:49.411Z,39.57
2019-06-08T15:51:48.205Z,43.95
2019-06-08T15:52:48.283Z,44.46
2019-06-08T15:53:48.217Z,44.48
2019-06-08T15:54:48.531Z,47.23
2019-06-08T15:55:48.682Z,44.36
2019-06-08T15:56:51.360Z,39.90
2019-06-08T15:57:48.038Z,39.35
2019-06-08T15:58:48.668Z,41.91
2019-06-08T15:59:49.224Z,43.37
2019-06-08T16:00:48.025Z,40.85
2019-06-08T16:01:48.029Z,40.03
2019-06-08T16:02:48.045Z,39.84
2019-06-08T16:03:48.071Z,40.31
2019-06-08T16:04:48.013Z,37.08
2019-06-08T16:05:48.026Z,40.29
2019-06-08T16:06:48.059Z,41.97
2019-06-08T16:07:48.024Z,39.33
2019-06-08T16:08:48.038Z,43.14
2019-06-08T16:09:48.049Z,42.16
2019-06-08T16:10:48.039Z,44.95
2019-06-08T16:11:48.046Z,38.85
2019-06-08T16:12:48.038Z,41.26
2019-06-08T16:13:48.030Z,41.55
2019-06-08T16:14:48.066Z,38.53
2019-06-08T16:15:48.052Z,37.66
2019-06-08T16:16:48.061Z,39.24
2019-06-08T16:17:48.049Z,45.54
2019-06-08T16:18:48.086Z,41.25
2019-06-08T16:19:48.085Z,43.71
2019-06-08T16:20:48.075Z,45.38
2019-06-08T16:21:48.041Z,48.79
2019-06-08T16:22:48.048Z,42.11
2019-06-08T16:23:48.060Z,39.87
2019-06-08T16:24:48.051Z,40.87
2019-06-08T16:25:48.106Z,36.86